Ana Sayfa
METAR-TAF:

METAR-TAF

Havaalanları :

Foz do Iguaçu, Paraná, Brezilya

Enlem: 25-31S, Boylam: 054-35W, yükseklik: 180 m

Güncel hava durumu gözlemi

Rapor saat 07:00 UTC de 28 dakika önce yapıldı.
Rüzgar doğudan 9 kt
Sıcaklık 23°C
Nem 78%
Basınç 1010 hPa
Görüş mesafesi 10 km veya daha fazla
1500 m altında bulut yok ve kümülonimbus yok

METAR: SBFI 150700Z 09009KT CAVOK 23/19 Q1010

Saat: 04:28 (07:28 UTC)

Tahmin

Rapor saat 03:00 UTC de 4 saat ve 28 dakika önce yapıldı.
Ayın 15'si saat 06 UTC'den ayın 16'si saat 06 UTC'ye kadar geçerli Tahmin
Rüzgar güneydoğudan 6 kt
Görüş mesafesi 10 km veya daha fazla
1500 m altında bulut yok ve kümülonimbus yok
Dönüşüyor
ayın 15'si saat 12 UTC'den ayın 15'si saat 14 UTC'ye kadar
Rüzgar kuzey/kuzeydoğudan 9 kt
Dönüşüyor
ayın 15'si saat 23 UTC'den ayın 16'si saat 01 UTC'ye kadar
Rüzgar doğudan 4 kt

TAF: SBFI 150300Z 1506/1606 13006KT CAVOK TN18/1508Z TX36/1518Z BECMG 1512/1514 03009KT BECMG 1523/1601 10004KT RMK PER

4.000'den fazla havaalanı için hava durumu gözlemleri ve tahminleri (METAR ve TAF raporları).

Kullanılabilir istasyonlar harita üzerinde sarı ve kırmızı noktalarla gösterilir.

İstasyonun adını görmek için fareyi noktanın üzerinde gezdirin.

Sonrasında hava gözlem ve tahminlerini görmek için tıklayın.

Haritayı değiştirmek için: yaklaştırmak için siyah artı işaretli yeşil düğmeye ve uzaklaştırmak için de eksi işaretli düğmeye hızla tıklayın; bitişik haritalar için yeşil okları kullanın.


METAR-TAF: